sensor_id;sensor_type;location;lat;lon;timestamp;pressure;altitude;pressure_sealevel;temperature;humidity
46408;BME280;32110;45.724;21.276;2023-03-20T05:18:00;100644.31;;;5.70;nan
46408;BME280;32110;45.724;21.276;2023-03-20T05:22:51;100623.22;;;5.71;nan
46408;BME280;32110;45.724;21.276;2023-03-20T05:25:17;100620.22;;;5.53;nan
46408;BME280;32110;45.724;21.276;2023-03-20T05:27:44;100629.00;;;5.67;nan
46408;BME280;32110;45.724;21.276;2023-03-20T05:30:11;100649.53;;;5.70;nan
46408;BME280;32110;45.724;21.276;2023-03-20T05:35:03;100641.31;;;5.73;nan
46408;BME280;32110;45.724;21.276;2023-03-20T05:37:29;100639.50;;;5.73;nan
46408;BME280;32110;45.724;21.276;2023-03-20T07:02:23;100750.75;;;8.06;nan
46408;BME280;32110;45.724;21.276;2023-03-20T07:04:49;100743.91;;;8.12;nan
46408;BME280;32110;45.724;21.276;2023-03-20T07:07:15;100760.25;;;8.27;nan
46408;BME280;32110;45.724;21.276;2023-03-20T07:09:41;100751.00;;;8.38;nan
46408;BME280;32110;45.724;21.276;2023-03-20T07:12:12;100750.84;;;8.60;nan
46408;BME280;32110;45.724;21.276;2023-03-20T07:14:39;100752.84;;;8.64;nan
46408;BME280;32110;45.724;21.276;2023-03-20T07:17:06;100755.25;;;8.72;nan
46408;BME280;32110;45.724;21.276;2023-03-20T07:19:33;100754.84;;;8.76;nan
46408;BME280;32110;45.724;21.276;2023-03-20T07:21:59;100743.91;;;8.79;nan
46408;BME280;32110;45.724;21.276;2023-03-20T07:24:26;100758.06;;;8.91;nan
46408;BME280;32110;45.724;21.276;2023-03-20T07:26:52;100763.28;;;9.04;nan
46408;BME280;32110;45.724;21.276;2023-03-20T07:29:17;100753.97;;;9.15;nan
46408;BME280;32110;45.724;21.276;2023-03-20T07:31:43;100757.78;;;9.19;nan
46408;BME280;32110;45.724;21.276;2023-03-20T07:34:08;100745.03;;;9.23;nan
46408;BME280;32110;45.724;21.276;2023-03-20T07:36:34;100748.47;;;9.30;nan
46408;BME280;32110;45.724;21.276;2023-03-20T07:38:59;100768.41;;;9.51;nan
46408;BME280;32110;45.724;21.276;2023-03-20T07:41:25;100765.34;;;9.61;nan
46408;BME280;32110;45.724;21.276;2023-03-20T07:43:50;100742.28;;;9.56;nan
46408;BME280;32110;45.724;21.276;2023-03-20T07:46:15;100755.16;;;9.71;nan
46408;BME280;32110;45.724;21.276;2023-03-20T07:48:41;100757.94;;;9.83;nan
46408;BME280;32110;45.724;21.276;2023-03-20T07:51:06;100746.38;;;9.84;nan
46408;BME280;32110;45.724;21.276;2023-03-20T07:53:32;100743.91;;;9.89;nan
46408;BME280;32110;45.724;21.276;2023-03-20T07:55:57;100746.88;;;10.06;nan
46408;BME280;32110;45.724;21.276;2023-03-20T07:58:22;100753.47;;;10.15;nan
46408;BME280;32110;45.724;21.276;2023-03-20T08:00:48;100758.50;;;10.23;nan
46408;BME280;32110;45.724;21.276;2023-03-20T08:03:13;100761.28;;;10.35;nan
46408;BME280;32110;45.724;21.276;2023-03-20T08:05:38;100754.34;;;10.40;nan
46408;BME280;32110;45.724;21.276;2023-03-20T08:08:04;100750.84;;;10.47;nan
46408;BME280;32110;45.724;21.276;2023-03-20T08:10:30;100761.69;;;10.57;nan
46408;BME280;32110;45.724;21.276;2023-03-20T08:12:55;100741.81;;;10.61;nan
46408;BME280;32110;45.724;21.276;2023-03-20T08:15:21;100764.38;;;10.75;nan
46408;BME280;32110;45.724;21.276;2023-03-20T08:17:47;100763.44;;;10.88;nan
46408;BME280;32110;45.724;21.276;2023-03-20T08:20:14;100754.16;;;10.85;nan
46408;BME280;32110;45.724;21.276;2023-03-20T08:22:40;100759.28;;;10.99;nan
46408;BME280;32110;45.724;21.276;2023-03-20T08:25:07;100764.78;;;11.16;nan
46408;BME280;32110;45.724;21.276;2023-03-20T08:27:33;100761.84;;;11.24;nan
46408;BME280;32110;45.724;21.276;2023-03-20T08:29:59;100765.56;;;11.35;nan
46408;BME280;32110;45.724;21.276;2023-03-20T08:32:24;100762.66;;;11.43;nan
46408;BME280;32110;45.724;21.276;2023-03-20T08:34:51;100759.09;;;11.49;nan
46408;BME280;32110;45.724;21.276;2023-03-20T08:37:16;100764.03;;;11.64;nan
46408;BME280;32110;45.724;21.276;2023-03-20T08:39:41;100758.09;;;11.68;nan
46408;BME280;32110;45.724;21.276;2023-03-20T08:42:07;100752.28;;;11.78;nan
46408;BME280;32110;45.724;21.276;2023-03-20T08:44:32;100752.97;;;11.85;nan
46408;BME280;32110;45.724;21.276;2023-03-20T08:46:58;100770.41;;;12.05;nan
46408;BME280;32110;45.724;21.276;2023-03-20T08:49:23;100767.78;;;12.17;nan
46408;BME280;32110;45.724;21.276;2023-03-20T08:51:49;100755.97;;;12.19;nan
46408;BME280;32110;45.724;21.276;2023-03-20T08:54:15;100771.38;;;12.34;nan
46408;BME280;32110;45.724;21.276;2023-03-20T08:56:43;100775.88;;;12.45;nan
46408;BME280;32110;45.724;21.276;2023-03-20T08:59:10;100768.66;;;12.52;nan
46408;BME280;32110;45.724;21.276;2023-03-20T09:01:35;100735.91;;;12.42;nan
46408;BME280;32110;45.724;21.276;2023-03-20T09:04:01;100729.69;;;12.36;nan
46408;BME280;32110;45.724;21.276;2023-03-20T09:06:26;100762.81;;;12.74;nan
46408;BME280;32110;45.724;21.276;2023-03-20T09:08:53;100755.31;;;12.83;nan
46408;BME280;32110;45.724;21.276;2023-03-20T09:11:19;100742.69;;;12.85;nan
46408;BME280;32110;45.724;21.276;2023-03-20T09:13:44;100741.63;;;12.97;nan
46408;BME280;32110;45.724;21.276;2023-03-20T09:16:09;100761.47;;;13.12;nan
46408;BME280;32110;45.724;21.276;2023-03-20T09:53:28;100732.47;;;14.32;nan
46408;BME280;32110;45.724;21.276;2023-03-20T09:55:55;100737.94;;;14.42;nan
46408;BME280;32110;45.724;21.276;2023-03-20T09:58:33;100728.78;;;14.50;nan
46408;BME280;32110;45.724;21.276;2023-03-20T10:01:01;100735.59;;;14.62;nan
46408;BME280;32110;45.724;21.276;2023-03-20T10:03:48;100738.72;;;14.76;nan
46408;BME280;32110;45.724;21.276;2023-03-20T10:06:16;100731.16;;;14.85;nan
46408;BME280;32110;45.724;21.276;2023-03-20T10:08:42;100738.69;;;14.93;nan
46408;BME280;32110;45.724;21.276;2023-03-20T10:13:52;100701.78;;;14.92;nan
46408;BME280;32110;45.724;21.276;2023-03-20T10:16:44;100715.69;;;15.21;nan
46408;BME280;32110;45.724;21.276;2023-03-20T10:19:28;100715.78;;;15.31;nan
46408;BME280;32110;45.724;21.276;2023-03-20T10:22:25;100714.31;;;15.40;nan
46408;BME280;32110;45.724;21.276;2023-03-20T10:25:13;100717.06;;;15.50;nan
46408;BME280;32110;45.724;21.276;2023-03-20T10:30:37;100713.28;;;15.68;nan
46408;BME280;32110;45.724;21.276;2023-03-20T10:36:09;100704.72;;;15.88;nan
46408;BME280;32110;45.724;21.276;2023-03-20T10:38:41;100702.94;;;15.99;nan
46408;BME280;32110;45.724;21.276;2023-03-20T10:41:13;100701.41;;;16.08;nan
46408;BME280;32110;45.724;21.276;2023-03-20T10:43:43;100699.06;;;16.12;nan
46408;BME280;32110;45.724;21.276;2023-03-20T10:51:12;100682.44;;;16.27;nan
46408;BME280;32110;45.724;21.276;2023-03-20T10:53:48;100688.59;;;16.37;nan
46408;BME280;32110;45.724;21.276;2023-03-20T10:58:49;100687.94;;;16.57;nan
46408;BME280;32110;45.724;21.276;2023-03-20T11:01:18;100680.53;;;16.65;nan
46408;BME280;32110;45.724;21.276;2023-03-20T11:03:45;100681.66;;;16.74;nan
46408;BME280;32110;45.724;21.276;2023-03-20T11:06:19;100669.72;;;16.82;nan
46408;BME280;32110;45.724;21.276;2023-03-20T11:08:51;100676.72;;;16.93;nan
46408;BME280;32110;45.724;21.276;2023-03-20T11:11:25;100655.13;;;16.89;nan
46408;BME280;32110;45.724;21.276;2023-03-20T11:13:51;100649.84;;;16.99;nan
46408;BME280;32110;45.724;21.276;2023-03-20T11:18:48;100645.34;;;17.10;nan
46408;BME280;32110;45.724;21.276;2023-03-20T11:21:34;100645.13;;;17.22;nan
46408;BME280;32110;45.724;21.276;2023-03-20T11:24:21;100642.47;;;17.22;nan
46408;BME280;32110;45.724;21.276;2023-03-20T11:26:46;100635.81;;;17.19;nan
46408;BME280;32110;45.724;21.276;2023-03-20T11:29:25;100627.53;;;17.21;nan
46408;BME280;32110;45.724;21.276;2023-03-20T11:31:53;100641.16;;;17.35;nan
46408;BME280;32110;45.724;21.276;2023-03-20T11:34:22;100634.50;;;17.42;nan
46408;BME280;32110;45.724;21.276;2023-03-20T12:58:21;100509.38;;;18.93;nan
46408;BME280;32110;45.724;21.276;2023-03-20T13:04:04;100482.47;;;18.89;nan
46408;BME280;32110;45.724;21.276;2023-03-20T13:18:18;100483.84;;;18.82;nan
46408;BME280;32110;45.724;21.276;2023-03-20T13:21:36;100486.00;;;18.80;nan
46408;BME280;32110;45.724;21.276;2023-03-20T13:39:24;100473.47;;;18.75;nan
46408;BME280;32110;45.724;21.276;2023-03-20T13:47:01;100466.03;;;18.77;nan
46408;BME280;32110;45.724;21.276;2023-03-20T14:14:55;100446.50;;;18.37;nan
46408;BME280;32110;45.724;21.276;2023-03-20T14:22:23;100464.72;;;18.20;nan
46408;BME280;32110;45.724;21.276;2023-03-20T15:38:18;100463.00;;;17.64;nan
46408;BME280;32110;45.724;21.276;2023-03-20T16:05:41;100503.00;;;17.03;nan
46408;BME280;32110;45.724;21.276;2023-03-20T16:45:33;100523.03;;;16.37;nan
46408;BME280;32110;45.724;21.276;2023-03-20T18:19:30;100589.78;;;15.34;nan
46408;BME280;32110;45.724;21.276;2023-03-20T23:23:37;100538.31;;;12.27;nan
